sensor_id;sensor_type;location;lat;lon;timestamp;P1;durP1;ratioP1;P2;durP2;ratioP2
13872;SDS011;7006;51.494;11.964;2022-12-18T00:01:37;133.13;;;46.40;;
13872;SDS011;7006;51.494;11.964;2022-12-18T00:04:05;187.68;;;48.30;;
13872;SDS011;7006;51.494;11.964;2022-12-18T00:06:33;142.35;;;49.25;;
13872;SDS011;7006;51.494;11.964;2022-12-18T00:09:00;119.30;;;47.58;;
13872;SDS011;7006;51.494;11.964;2022-12-18T00:11:29;125.18;;;46.22;;
13872;SDS011;7006;51.494;11.964;2022-12-18T00:13:56;121.75;;;46.33;;
13872;SDS011;7006;51.494;11.964;2022-12-18T00:16:23;147.73;;;43.80;;
13872;SDS011;7006;51.494;11.964;2022-12-18T00:18:50;104.85;;;42.85;;
13872;SDS011;7006;51.494;11.964;2022-12-18T00:21:17;117.20;;;41.28;;
13872;SDS011;7006;51.494;11.964;2022-12-18T00:23:43;135.82;;;40.85;;
13872;SDS011;7006;51.494;11.964;2022-12-18T00:26:10;95.32;;;39.90;;
13872;SDS011;7006;51.494;11.964;2022-12-18T00:28:38;147.68;;;39.75;;
13872;SDS011;7006;51.494;11.964;2022-12-18T00:31:06;86.43;;;37.10;;
13872;SDS011;7006;51.494;11.964;2022-12-18T00:33:32;83.18;;;36.03;;
13872;SDS011;7006;51.494;11.964;2022-12-18T00:36:00;76.45;;;38.42;;
13872;SDS011;7006;51.494;11.964;2022-12-18T00:38:26;92.22;;;40.45;;
13872;SDS011;7006;51.494;11.964;2022-12-18T00:40:53;115.97;;;37.03;;
13872;SDS011;7006;51.494;11.964;2022-12-18T00:43:19;129.68;;;41.38;;
13872;SDS011;7006;51.494;11.964;2022-12-18T00:45:46;73.07;;;34.23;;
13872;SDS011;7006;51.494;11.964;2022-12-18T00:48:12;99.30;;;35.30;;
13872;SDS011;7006;51.494;11.964;2022-12-18T00:50:39;141.85;;;40.20;;
13872;SDS011;7006;51.494;11.964;2022-12-18T00:53:05;85.80;;;38.83;;
13872;SDS011;7006;51.494;11.964;2022-12-18T00:55:32;124.95;;;37.15;;
13872;SDS011;7006;51.494;11.964;2022-12-18T00:57:58;90.63;;;39.95;;
13872;SDS011;7006;51.494;11.964;2022-12-18T01:00:25;83.97;;;37.03;;
13872;SDS011;7006;51.494;11.964;2022-12-18T01:02:52;74.90;;;35.78;;
13872;SDS011;7006;51.494;11.964;2022-12-18T01:05:19;96.10;;;37.67;;
13872;SDS011;7006;51.494;11.964;2022-12-18T01:07:45;70.60;;;33.83;;
13872;SDS011;7006;51.494;11.964;2022-12-18T01:10:12;105.43;;;38.42;;
13872;SDS011;7006;51.494;11.964;2022-12-18T01:12:39;89.22;;;34.58;;
13872;SDS011;7006;51.494;11.964;2022-12-18T01:15:06;77.40;;;33.95;;
13872;SDS011;7006;51.494;11.964;2022-12-18T01:17:32;100.18;;;35.55;;
13872;SDS011;7006;51.494;11.964;2022-12-18T01:20:00;99.93;;;36.03;;
13872;SDS011;7006;51.494;11.964;2022-12-18T01:22:27;98.72;;;37.33;;
13872;SDS011;7006;51.494;11.964;2022-12-18T01:24:53;114.63;;;36.47;;
13872;SDS011;7006;51.494;11.964;2022-12-18T01:27:19;73.97;;;35.47;;
13872;SDS011;7006;51.494;11.964;2022-12-18T01:29:46;78.32;;;35.05;;
13872;SDS011;7006;51.494;11.964;2022-12-18T01:32:12;83.72;;;35.08;;
13872;SDS011;7006;51.494;11.964;2022-12-18T01:34:39;83.90;;;36.25;;
13872;SDS011;7006;51.494;11.964;2022-12-18T01:37:06;172.25;;;42.03;;
13872;SDS011;7006;51.494;11.964;2022-12-18T01:39:33;82.88;;;37.45;;
13872;SDS011;7006;51.494;11.964;2022-12-18T01:41:59;153.35;;;40.85;;
13872;SDS011;7006;51.494;11.964;2022-12-18T01:47:14;75.75;;;35.55;;
13872;SDS011;7006;51.494;11.964;2022-12-18T01:49:41;103.68;;;35.72;;
13872;SDS011;7006;51.494;11.964;2022-12-18T01:52:09;81.85;;;37.00;;
13872;SDS011;7006;51.494;11.964;2022-12-18T01:54:36;105.00;;;38.47;;
13872;SDS011;7006;51.494;11.964;2022-12-18T01:57:02;80.93;;;36.40;;
13872;SDS011;7006;51.494;11.964;2022-12-18T01:59:28;86.65;;;37.72;;
13872;SDS011;7006;51.494;11.964;2022-12-18T02:01:55;76.38;;;37.38;;
13872;SDS011;7006;51.494;11.964;2022-12-18T02:04:23;85.13;;;38.35;;
13872;SDS011;7006;51.494;11.964;2022-12-18T02:06:50;94.97;;;40.13;;
13872;SDS011;7006;51.494;11.964;2022-12-18T02:09:19;82.28;;;38.00;;
13872;SDS011;7006;51.494;11.964;2022-12-18T02:11:48;82.38;;;39.40;;
13872;SDS011;7006;51.494;11.964;2022-12-18T02:14:21;92.35;;;38.88;;
13872;SDS011;7006;51.494;11.964;2022-12-18T02:16:51;90.90;;;39.30;;
13872;SDS011;7006;51.494;11.964;2022-12-18T02:19:34;96.38;;;38.53;;
13872;SDS011;7006;51.494;11.964;2022-12-18T02:22:07;97.20;;;39.25;;
13872;SDS011;7006;51.494;11.964;2022-12-18T02:24:40;75.75;;;35.40;;
13872;SDS011;7006;51.494;11.964;2022-12-18T02:27:09;96.90;;;38.33;;
13872;SDS011;7006;51.494;11.964;2022-12-18T02:29:37;95.93;;;40.20;;
13872;SDS011;7006;51.494;11.964;2022-12-18T02:32:06;97.60;;;40.40;;
13872;SDS011;7006;51.494;11.964;2022-12-18T02:34:36;100.18;;;41.88;;
13872;SDS011;7006;51.494;11.964;2022-12-18T02:37:04;106.30;;;40.28;;
13872;SDS011;7006;51.494;11.964;2022-12-18T02:39:31;109.00;;;41.55;;
13872;SDS011;7006;51.494;11.964;2022-12-18T02:41:58;106.40;;;39.60;;
13872;SDS011;7006;51.494;11.964;2022-12-18T02:44:28;91.88;;;40.65;;
13872;SDS011;7006;51.494;11.964;2022-12-18T02:46:55;99.70;;;39.58;;
13872;SDS011;7006;51.494;11.964;2022-12-18T02:49:24;93.43;;;40.30;;
13872;SDS011;7006;51.494;11.964;2022-12-18T02:51:53;95.28;;;39.80;;
13872;SDS011;7006;51.494;11.964;2022-12-18T02:54:23;81.93;;;35.90;;
13872;SDS011;7006;51.494;11.964;2022-12-18T02:56:54;89.32;;;38.92;;
13872;SDS011;7006;51.494;11.964;2022-12-18T02:59:21;100.00;;;39.63;;
13872;SDS011;7006;51.494;11.964;2022-12-18T03:01:54;84.57;;;38.22;;
13872;SDS011;7006;51.494;11.964;2022-12-18T03:04:23;92.13;;;40.17;;
13872;SDS011;7006;51.494;11.964;2022-12-18T03:06:53;88.63;;;36.85;;
13872;SDS011;7006;51.494;11.964;2022-12-18T03:09:21;93.88;;;38.58;;
13872;SDS011;7006;51.494;11.964;2022-12-18T03:11:49;89.53;;;37.25;;
13872;SDS011;7006;51.494;11.964;2022-12-18T03:14:39;98.00;;;38.97;;
13872;SDS011;7006;51.494;11.964;2022-12-18T03:17:09;106.68;;;39.65;;
13872;SDS011;7006;51.494;11.964;2022-12-18T03:19:36;85.45;;;38.50;;
13872;SDS011;7006;51.494;11.964;2022-12-18T03:22:04;93.75;;;38.63;;
13872;SDS011;7006;51.494;11.964;2022-12-18T03:24:32;91.35;;;40.15;;
13872;SDS011;7006;51.494;11.964;2022-12-18T03:27:01;91.22;;;39.60;;
13872;SDS011;7006;51.494;11.964;2022-12-18T03:29:29;93.68;;;41.10;;
13872;SDS011;7006;51.494;11.964;2022-12-18T03:31:59;88.85;;;38.05;;
13872;SDS011;7006;51.494;11.964;2022-12-18T03:34:30;82.80;;;37.75;;
13872;SDS011;7006;51.494;11.964;2022-12-18T03:36:57;83.72;;;38.35;;
13872;SDS011;7006;51.494;11.964;2022-12-18T03:39:23;83.05;;;37.17;;
13872;SDS011;7006;51.494;11.964;2022-12-18T03:41:51;88.82;;;37.72;;
13872;SDS011;7006;51.494;11.964;2022-12-18T03:44:19;81.93;;;37.40;;
13872;SDS011;7006;51.494;11.964;2022-12-18T03:46:47;87.45;;;36.05;;
13872;SDS011;7006;51.494;11.964;2022-12-18T03:49:17;72.05;;;36.78;;
13872;SDS011;7006;51.494;11.964;2022-12-18T03:51:48;77.15;;;36.88;;
13872;SDS011;7006;51.494;11.964;2022-12-18T03:54:15;81.40;;;35.75;;
13872;SDS011;7006;51.494;11.964;2022-12-18T03:56:44;89.82;;;36.05;;
13872;SDS011;7006;51.494;11.964;2022-12-18T03:59:11;74.28;;;36.60;;
13872;SDS011;7006;51.494;11.964;2022-12-18T04:01:39;81.45;;;36.97;;
13872;SDS011;7006;51.494;11.964;2022-12-18T04:04:07;79.93;;;36.15;;
13872;SDS011;7006;51.494;11.964;2022-12-18T04:06:34;68.03;;;33.03;;
13872;SDS011;7006;51.494;11.964;2022-12-18T04:09:03;80.38;;;36.00;;
13872;SDS011;7006;51.494;11.964;2022-12-18T04:11:30;70.80;;;36.08;;
13872;SDS011;7006;51.494;11.964;2022-12-18T04:13:56;88.18;;;37.50;;
13872;SDS011;7006;51.494;11.964;2022-12-18T04:16:23;72.70;;;32.88;;
13872;SDS011;7006;51.494;11.964;2022-12-18T04:18:49;73.65;;;33.95;;
13872;SDS011;7006;51.494;11.964;2022-12-18T04:21:16;92.55;;;33.92;;
13872;SDS011;7006;51.494;11.964;2022-12-18T04:23:42;87.45;;;37.10;;
13872;SDS011;7006;51.494;11.964;2022-12-18T04:26:10;92.63;;;37.10;;
13872;SDS011;7006;51.494;11.964;2022-12-18T04:28:36;82.60;;;37.42;;
13872;SDS011;7006;51.494;11.964;2022-12-18T04:31:02;73.88;;;35.67;;
13872;SDS011;7006;51.494;11.964;2022-12-18T04:33:29;82.93;;;33.50;;
13872;SDS011;7006;51.494;11.964;2022-12-18T04:35:55;79.20;;;36.00;;
13872;SDS011;7006;51.494;11.964;2022-12-18T04:38:22;85.57;;;38.42;;
13872;SDS011;7006;51.494;11.964;2022-12-18T04:40:48;81.72;;;37.80;;
13872;SDS011;7006;51.494;11.964;2022-12-18T04:43:16;89.97;;;33.30;;
13872;SDS011;7006;51.494;11.964;2022-12-18T04:45:42;85.80;;;33.97;;
13872;SDS011;7006;51.494;11.964;2022-12-18T04:48:08;80.43;;;38.92;;
13872;SDS011;7006;51.494;11.964;2022-12-18T04:50:35;78.60;;;35.55;;
13872;SDS011;7006;51.494;11.964;2022-12-18T04:53:01;83.38;;;38.65;;
13872;SDS011;7006;51.494;11.964;2022-12-18T04:55:28;89.90;;;35.92;;
13872;SDS011;7006;51.494;11.964;2022-12-18T04:57:54;86.63;;;37.65;;
13872;SDS011;7006;51.494;11.964;2022-12-18T05:00:22;86.03;;;38.00;;
13872;SDS011;7006;51.494;11.964;2022-12-18T05:02:48;84.97;;;35.90;;
13872;SDS011;7006;51.494;11.964;2022-12-18T05:05:15;81.05;;;36.63;;
13872;SDS011;7006;51.494;11.964;2022-12-18T05:07:41;86.22;;;39.45;;
13872;SDS011;7006;51.494;11.964;2022-12-18T05:10:08;73.95;;;37.28;;
13872;SDS011;7006;51.494;11.964;2022-12-18T05:12:34;75.28;;;35.88;;
13872;SDS011;7006;51.494;11.964;2022-12-18T05:15:22;80.13;;;36.80;;
13872;SDS011;7006;51.494;11.964;2022-12-18T05:17:49;85.18;;;37.28;;
13872;SDS011;7006;51.494;11.964;2022-12-18T05:20:15;84.78;;;36.78;;
13872;SDS011;7006;51.494;11.964;2022-12-18T05:22:43;88.43;;;36.20;;
13872;SDS011;7006;51.494;11.964;2022-12-18T05:25:09;81.10;;;35.90;;
13872;SDS011;7006;51.494;11.964;2022-12-18T05:27:36;79.50;;;36.70;;
13872;SDS011;7006;51.494;11.964;2022-12-18T05:30:02;68.68;;;32.92;;
13872;SDS011;7006;51.494;11.964;2022-12-18T05:32:30;79.78;;;34.17;;
13872;SDS011;7006;51.494;11.964;2022-12-18T05:34:57;70.22;;;32.70;;
13872;SDS011;7006;51.494;11.964;2022-12-18T05:37:23;68.20;;;34.55;;
13872;SDS011;7006;51.494;11.964;2022-12-18T05:39:49;73.15;;;34.80;;
13872;SDS011;7006;51.494;11.964;2022-12-18T05:42:16;71.80;;;33.85;;
13872;SDS011;7006;51.494;11.964;2022-12-18T05:44:42;77.45;;;35.08;;
13872;SDS011;7006;51.494;11.964;2022-12-18T05:47:09;75.80;;;34.25;;
13872;SDS011;7006;51.494;11.964;2022-12-18T05:49:37;70.20;;;35.55;;
13872;SDS011;7006;51.494;11.964;2022-12-18T05:52:03;74.95;;;33.80;;
13872;SDS011;7006;51.494;11.964;2022-12-18T05:54:29;79.57;;;34.63;;
13872;SDS011;7006;51.494;11.964;2022-12-18T05:56:56;83.80;;;36.60;;
13872;SDS011;7006;51.494;11.964;2022-12-18T05:59:22;77.03;;;33.95;;
13872;SDS011;7006;51.494;11.964;2022-12-18T06:01:49;74.22;;;33.65;;
13872;SDS011;7006;51.494;11.964;2022-12-18T06:04:15;70.07;;;34.10;;
13872;SDS011;7006;51.494;11.964;2022-12-18T06:06:43;79.68;;;36.10;;
13872;SDS011;7006;51.494;11.964;2022-12-18T06:09:09;77.40;;;36.33;;
13872;SDS011;7006;51.494;11.964;2022-12-18T06:11:37;74.97;;;34.60;;
13872;SDS011;7006;51.494;11.964;2022-12-18T06:14:04;70.20;;;31.77;;
13872;SDS011;7006;51.494;11.964;2022-12-18T06:16:31;77.85;;;36.40;;
13872;SDS011;7006;51.494;11.964;2022-12-18T06:18:57;74.60;;;34.58;;
13872;SDS011;7006;51.494;11.964;2022-12-18T06:21:24;72.60;;;34.90;;
13872;SDS011;7006;51.494;11.964;2022-12-18T06:23:51;72.80;;;33.53;;
13872;SDS011;7006;51.494;11.964;2022-12-18T06:26:18;75.25;;;34.45;;
13872;SDS011;7006;51.494;11.964;2022-12-18T06:28:44;79.43;;;34.97;;
13872;SDS011;7006;51.494;11.964;2022-12-18T06:31:10;74.00;;;33.63;;
13872;SDS011;7006;51.494;11.964;2022-12-18T06:33:37;69.03;;;32.22;;
13872;SDS011;7006;51.494;11.964;2022-12-18T06:36:05;77.10;;;34.90;;
13872;SDS011;7006;51.494;11.964;2022-12-18T06:38:32;64.13;;;31.67;;
13872;SDS011;7006;51.494;11.964;2022-12-18T06:41:00;73.75;;;35.22;;
13872;SDS011;7006;51.494;11.964;2022-12-18T06:43:26;69.22;;;33.15;;
13872;SDS011;7006;51.494;11.964;2022-12-18T06:45:57;87.82;;;35.40;;
13872;SDS011;7006;51.494;11.964;2022-12-18T06:48:23;83.78;;;36.03;;
13872;SDS011;7006;51.494;11.964;2022-12-18T06:50:50;86.30;;;37.55;;
13872;SDS011;7006;51.494;11.964;2022-12-18T06:53:16;92.55;;;39.55;;
13872;SDS011;7006;51.494;11.964;2022-12-18T06:55:42;77.28;;;37.88;;
13872;SDS011;7006;51.494;11.964;2022-12-18T06:58:10;72.50;;;36.72;;
13872;SDS011;7006;51.494;11.964;2022-12-18T07:00:37;72.38;;;35.67;;
13872;SDS011;7006;51.494;11.964;2022-12-18T07:03:03;87.43;;;37.15;;
13872;SDS011;7006;51.494;11.964;2022-12-18T07:05:29;78.25;;;36.22;;
13872;SDS011;7006;51.494;11.964;2022-12-18T07:07:56;70.03;;;33.75;;
13872;SDS011;7006;51.494;11.964;2022-12-18T07:10:22;86.72;;;39.83;;
13872;SDS011;7006;51.494;11.964;2022-12-18T07:12:49;73.25;;;34.42;;
13872;SDS011;7006;51.494;11.964;2022-12-18T07:15:16;72.15;;;32.60;;
13872;SDS011;7006;51.494;11.964;2022-12-18T07:17:43;83.32;;;33.13;;
13872;SDS011;7006;51.494;11.964;2022-12-18T07:20:10;66.22;;;31.55;;
13872;SDS011;7006;51.494;11.964;2022-12-18T07:22:36;61.88;;;30.75;;
13872;SDS011;7006;51.494;11.964;2022-12-18T07:25:02;70.60;;;33.85;;
13872;SDS011;7006;51.494;11.964;2022-12-18T07:27:29;75.68;;;34.03;;
13872;SDS011;7006;51.494;11.964;2022-12-18T07:29:55;64.90;;;32.45;;
13872;SDS011;7006;51.494;11.964;2022-12-18T07:32:23;69.60;;;38.70;;
13872;SDS011;7006;51.494;11.964;2022-12-18T07:34:50;69.90;;;35.15;;
13872;SDS011;7006;51.494;11.964;2022-12-18T07:37:16;68.20;;;33.92;;
13872;SDS011;7006;51.494;11.964;2022-12-18T07:39:42;67.10;;;32.30;;
13872;SDS011;7006;51.494;11.964;2022-12-18T07:42:09;67.13;;;33.85;;
13872;SDS011;7006;51.494;11.964;2022-12-18T07:44:53;60.88;;;32.85;;
13872;SDS011;7006;51.494;11.964;2022-12-18T07:47:19;71.65;;;35.22;;
13872;SDS011;7006;51.494;11.964;2022-12-18T07:49:47;68.80;;;34.10;;
13872;SDS011;7006;51.494;11.964;2022-12-18T07:52:13;66.05;;;32.95;;
13872;SDS011;7006;51.494;11.964;2022-12-18T07:54:40;107.18;;;45.25;;
13872;SDS011;7006;51.494;11.964;2022-12-18T07:57:06;67.72;;;34.03;;
13872;SDS011;7006;51.494;11.964;2022-12-18T07:59:33;59.25;;;29.75;;
13872;SDS011;7006;51.494;11.964;2022-12-18T08:01:59;57.55;;;32.80;;
13872;SDS011;7006;51.494;11.964;2022-12-18T08:04:26;63.65;;;32.20;;
13872;SDS011;7006;51.494;11.964;2022-12-18T08:06:53;76.72;;;34.40;;
13872;SDS011;7006;51.494;11.964;2022-12-18T08:09:20;67.40;;;33.08;;
13872;SDS011;7006;51.494;11.964;2022-12-18T08:11:46;75.65;;;39.35;;
13872;SDS011;7006;51.494;11.964;2022-12-18T08:14:13;89.60;;;46.50;;
13872;SDS011;7006;51.494;11.964;2022-12-18T08:16:39;137.98;;;56.20;;
13872;SDS011;7006;51.494;11.964;2022-12-18T08:19:06;58.78;;;31.77;;
13872;SDS011;7006;51.494;11.964;2022-12-18T08:21:32;63.72;;;30.70;;
13872;SDS011;7006;51.494;11.964;2022-12-18T08:24:00;62.30;;;31.52;;
13872;SDS011;7006;51.494;11.964;2022-12-18T08:26:27;60.38;;;31.27;;
13872;SDS011;7006;51.494;11.964;2022-12-18T08:28:54;69.95;;;34.15;;
13872;SDS011;7006;51.494;11.964;2022-12-18T08:31:21;66.57;;;33.20;;
13872;SDS011;7006;51.494;11.964;2022-12-18T08:33:48;60.92;;;31.70;;
13872;SDS011;7006;51.494;11.964;2022-12-18T08:36:15;64.47;;;34.30;;
13872;SDS011;7006;51.494;11.964;2022-12-18T08:38:41;57.13;;;32.90;;
13872;SDS011;7006;51.494;11.964;2022-12-18T08:41:09;62.30;;;33.65;;
13872;SDS011;7006;51.494;11.964;2022-12-18T08:43:36;64.10;;;34.70;;
13872;SDS011;7006;51.494;11.964;2022-12-18T08:46:20;61.50;;;32.85;;
13872;SDS011;7006;51.494;11.964;2022-12-18T08:48:47;64.40;;;33.38;;
13872;SDS011;7006;51.494;11.964;2022-12-18T08:51:15;63.40;;;31.88;;
13872;SDS011;7006;51.494;11.964;2022-12-18T08:53:42;75.47;;;39.30;;
13872;SDS011;7006;51.494;11.964;2022-12-18T08:56:10;59.28;;;32.10;;
13872;SDS011;7006;51.494;11.964;2022-12-18T08:58:37;73.43;;;34.80;;
13872;SDS011;7006;51.494;11.964;2022-12-18T09:01:04;63.25;;;33.08;;
13872;SDS011;7006;51.494;11.964;2022-12-18T09:03:31;63.50;;;35.95;;
13872;SDS011;7006;51.494;11.964;2022-12-18T09:05:58;62.40;;;33.60;;
13872;SDS011;7006;51.494;11.964;2022-12-18T09:08:24;64.65;;;31.88;;
13872;SDS011;7006;51.494;11.964;2022-12-18T09:10:50;55.70;;;32.92;;
13872;SDS011;7006;51.494;11.964;2022-12-18T09:13:18;63.70;;;35.00;;
13872;SDS011;7006;51.494;11.964;2022-12-18T09:15:46;51.17;;;31.65;;
13872;SDS011;7006;51.494;11.964;2022-12-18T09:18:13;59.13;;;32.47;;
13872;SDS011;7006;51.494;11.964;2022-12-18T09:20:40;65.07;;;35.78;;
13872;SDS011;7006;51.494;11.964;2022-12-18T09:23:07;61.25;;;36.08;;
13872;SDS011;7006;51.494;11.964;2022-12-18T09:25:34;53.85;;;32.72;;
13872;SDS011;7006;51.494;11.964;2022-12-18T09:28:01;49.38;;;28.27;;
13872;SDS011;7006;51.494;11.964;2022-12-18T09:30:29;37.85;;;22.67;;
13872;SDS011;7006;51.494;11.964;2022-12-18T09:32:58;24.67;;;16.30;;
13872;SDS011;7006;51.494;11.964;2022-12-18T09:35:24;32.97;;;19.20;;
13872;SDS011;7006;51.494;11.964;2022-12-18T09:37:52;29.17;;;18.90;;
13872;SDS011;7006;51.494;11.964;2022-12-18T09:40:21;29.55;;;17.55;;
13872;SDS011;7006;51.494;11.964;2022-12-18T09:42:48;28.52;;;17.88;;
13872;SDS011;7006;51.494;11.964;2022-12-18T09:45:16;26.55;;;18.88;;
13872;SDS011;7006;51.494;11.964;2022-12-18T09:47:44;28.77;;;19.23;;
13872;SDS011;7006;51.494;11.964;2022-12-18T09:50:16;32.58;;;19.65;;
13872;SDS011;7006;51.494;11.964;2022-12-18T09:52:45;25.67;;;14.00;;
13872;SDS011;7006;51.494;11.964;2022-12-18T09:55:16;32.23;;;19.13;;
13872;SDS011;7006;51.494;11.964;2022-12-18T09:57:47;32.20;;;18.77;;
13872;SDS011;7006;51.494;11.964;2022-12-18T10:00:16;34.00;;;19.98;;
13872;SDS011;7006;51.494;11.964;2022-12-18T10:02:44;28.05;;;16.73;;
13872;SDS011;7006;51.494;11.964;2022-12-18T10:05:12;32.87;;;18.93;;
13872;SDS011;7006;51.494;11.964;2022-12-18T10:07:42;30.30;;;19.13;;
13872;SDS011;7006;51.494;11.964;2022-12-18T10:10:13;26.83;;;16.87;;
13872;SDS011;7006;51.494;11.964;2022-12-18T10:12:42;27.37;;;16.40;;
13872;SDS011;7006;51.494;11.964;2022-12-18T10:15:13;28.33;;;16.13;;
13872;SDS011;7006;51.494;11.964;2022-12-18T10:17:44;25.80;;;14.63;;
13872;SDS011;7006;51.494;11.964;2022-12-18T10:20:15;24.93;;;16.07;;
13872;SDS011;7006;51.494;11.964;2022-12-18T10:22:48;22.27;;;13.77;;
13872;SDS011;7006;51.494;11.964;2022-12-18T10:25:18;22.55;;;12.20;;
13872;SDS011;7006;51.494;11.964;2022-12-18T10:27:46;21.75;;;15.60;;
13872;SDS011;7006;51.494;11.964;2022-12-18T10:30:38;24.90;;;15.90;;
13872;SDS011;7006;51.494;11.964;2022-12-18T10:33:18;23.63;;;15.00;;
13872;SDS011;7006;51.494;11.964;2022-12-18T10:35:47;24.20;;;15.10;;
13872;SDS011;7006;51.494;11.964;2022-12-18T10:38:22;22.27;;;14.00;;
13872;SDS011;7006;51.494;11.964;2022-12-18T10:40:50;23.83;;;13.43;;
13872;SDS011;7006;51.494;11.964;2022-12-18T10:43:19;23.57;;;14.97;;
13872;SDS011;7006;51.494;11.964;2022-12-18T10:45:57;23.38;;;15.20;;
13872;SDS011;7006;51.494;11.964;2022-12-18T10:48:24;23.20;;;15.18;;
13872;SDS011;7006;51.494;11.964;2022-12-18T10:50:51;22.00;;;15.60;;
13872;SDS011;7006;51.494;11.964;2022-12-18T10:53:19;22.13;;;15.57;;
13872;SDS011;7006;51.494;11.964;2022-12-18T10:55:46;20.93;;;14.63;;
13872;SDS011;7006;51.494;11.964;2022-12-18T10:58:13;22.37;;;15.50;;
13872;SDS011;7006;51.494;11.964;2022-12-18T11:00:42;23.80;;;16.23;;
13872;SDS011;7006;51.494;11.964;2022-12-18T11:03:28;23.77;;;15.50;;
13872;SDS011;7006;51.494;11.964;2022-12-18T11:06:02;24.40;;;16.10;;
13872;SDS011;7006;51.494;11.964;2022-12-18T11:08:29;24.70;;;16.53;;
13872;SDS011;7006;51.494;11.964;2022-12-18T11:10:55;23.23;;;17.03;;
13872;SDS011;7006;51.494;11.964;2022-12-18T11:13:22;21.93;;;15.50;;
13872;SDS011;7006;51.494;11.964;2022-12-18T11:15:49;22.70;;;16.73;;
13872;SDS011;7006;51.494;11.964;2022-12-18T11:18:16;25.50;;;17.23;;
13872;SDS011;7006;51.494;11.964;2022-12-18T11:20:43;20.57;;;15.80;;
13872;SDS011;7006;51.494;11.964;2022-12-18T11:23:17;22.00;;;16.37;;
13872;SDS011;7006;51.494;11.964;2022-12-18T11:25:50;22.20;;;16.27;;
13872;SDS011;7006;51.494;11.964;2022-12-18T11:28:25;22.40;;;16.50;;
13872;SDS011;7006;51.494;11.964;2022-12-18T11:31:02;21.47;;;14.67;;
13872;SDS011;7006;51.494;11.964;2022-12-18T11:33:34;22.27;;;15.00;;
13872;SDS011;7006;51.494;11.964;2022-12-18T11:36:02;18.20;;;13.50;;
13872;SDS011;7006;51.494;11.964;2022-12-18T11:38:32;23.53;;;15.90;;
13872;SDS011;7006;51.494;11.964;2022-12-18T11:41:00;22.30;;;15.40;;
13872;SDS011;7006;51.494;11.964;2022-12-18T11:43:28;20.87;;;16.70;;
13872;SDS011;7006;51.494;11.964;2022-12-18T11:45:59;22.40;;;15.20;;
13872;SDS011;7006;51.494;11.964;2022-12-18T11:48:26;19.57;;;15.30;;
13872;SDS011;7006;51.494;11.964;2022-12-18T11:50:55;22.10;;;15.83;;
13872;SDS011;7006;51.494;11.964;2022-12-18T11:53:22;23.10;;;14.30;;
13872;SDS011;7006;51.494;11.964;2022-12-18T11:55:54;19.77;;;14.13;;
13872;SDS011;7006;51.494;11.964;2022-12-18T11:58:35;18.37;;;14.37;;
13872;SDS011;7006;51.494;11.964;2022-12-18T12:01:06;18.53;;;14.00;;
13872;SDS011;7006;51.494;11.964;2022-12-18T12:03:39;19.47;;;13.33;;
13872;SDS011;7006;51.494;11.964;2022-12-18T12:06:10;17.00;;;12.20;;
13872;SDS011;7006;51.494;11.964;2022-12-18T12:08:43;16.40;;;12.00;;
13872;SDS011;7006;51.494;11.964;2022-12-18T12:11:16;15.73;;;12.60;;
13872;SDS011;7006;51.494;11.964;2022-12-18T12:13:54;19.27;;;13.97;;
13872;SDS011;7006;51.494;11.964;2022-12-18T12:16:25;20.07;;;13.83;;
13872;SDS011;7006;51.494;11.964;2022-12-18T12:18:56;20.73;;;15.70;;
13872;SDS011;7006;51.494;11.964;2022-12-18T12:21:28;19.87;;;13.60;;
13872;SDS011;7006;51.494;11.964;2022-12-18T12:23:57;19.83;;;13.50;;
13872;SDS011;7006;51.494;11.964;2022-12-18T12:26:29;19.37;;;13.40;;
13872;SDS011;7006;51.494;11.964;2022-12-18T12:29:05;16.37;;;13.23;;
13872;SDS011;7006;51.494;11.964;2022-12-18T12:31:45;16.27;;;13.17;;
13872;SDS011;7006;51.494;11.964;2022-12-18T12:34:16;20.30;;;15.27;;
13872;SDS011;7006;51.494;11.964;2022-12-18T12:36:46;19.40;;;13.40;;
13872;SDS011;7006;51.494;11.964;2022-12-18T12:39:20;18.80;;;12.90;;
13872;SDS011;7006;51.494;11.964;2022-12-18T12:41:50;19.10;;;13.30;;
13872;SDS011;7006;51.494;11.964;2022-12-18T12:44:34;15.70;;;12.57;;
13872;SDS011;7006;51.494;11.964;2022-12-18T12:47:06;18.90;;;14.47;;
13872;SDS011;7006;51.494;11.964;2022-12-18T12:49:34;20.93;;;13.17;;
13872;SDS011;7006;51.494;11.964;2022-12-18T12:52:03;18.00;;;13.70;;
13872;SDS011;7006;51.494;11.964;2022-12-18T12:54:31;17.20;;;13.37;;
13872;SDS011;7006;51.494;11.964;2022-12-18T12:57:04;15.60;;;11.90;;
13872;SDS011;7006;51.494;11.964;2022-12-18T12:59:37;17.47;;;13.03;;
13872;SDS011;7006;51.494;11.964;2022-12-18T13:02:10;19.57;;;14.50;;
13872;SDS011;7006;51.494;11.964;2022-12-18T13:04:41;17.40;;;12.47;;
13872;SDS011;7006;51.494;11.964;2022-12-18T13:07:12;19.70;;;14.20;;
13872;SDS011;7006;51.494;11.964;2022-12-18T13:12:24;19.57;;;13.43;;
13872;SDS011;7006;51.494;11.964;2022-12-18T13:15:12;17.60;;;14.00;;
13872;SDS011;7006;51.494;11.964;2022-12-18T13:17:46;17.20;;;12.73;;
13872;SDS011;7006;51.494;11.964;2022-12-18T13:20:13;17.77;;;13.50;;
13872;SDS011;7006;51.494;11.964;2022-12-18T13:22:41;19.07;;;14.10;;
13872;SDS011;7006;51.494;11.964;2022-12-18T13:25:31;15.57;;;12.30;;
13872;SDS011;7006;51.494;11.964;2022-12-18T13:28:07;16.70;;;13.10;;
13872;SDS011;7006;51.494;11.964;2022-12-18T13:30:45;19.60;;;13.67;;
13872;SDS011;7006;51.494;11.964;2022-12-18T13:33:36;16.03;;;12.50;;
13872;SDS011;7006;51.494;11.964;2022-12-18T13:36:09;16.63;;;12.27;;
13872;SDS011;7006;51.494;11.964;2022-12-18T13:38:38;22.60;;;15.37;;
13872;SDS011;7006;51.494;11.964;2022-12-18T13:41:14;22.33;;;15.90;;
13872;SDS011;7006;51.494;11.964;2022-12-18T13:43:50;22.53;;;15.53;;
13872;SDS011;7006;51.494;11.964;2022-12-18T13:46:21;26.87;;;17.50;;
13872;SDS011;7006;51.494;11.964;2022-12-18T13:48:56;25.23;;;17.93;;
13872;SDS011;7006;51.494;11.964;2022-12-18T13:51:23;27.63;;;20.13;;
13872;SDS011;7006;51.494;11.964;2022-12-18T13:53:51;26.73;;;18.33;;
13872;SDS011;7006;51.494;11.964;2022-12-18T13:56:17;26.20;;;18.50;;
13872;SDS011;7006;51.494;11.964;2022-12-18T14:01:29;51.90;;;34.70;;
13872;SDS011;7006;51.494;11.964;2022-12-18T14:04:08;29.43;;;19.70;;
13872;SDS011;7006;51.494;11.964;2022-12-18T14:06:34;30.57;;;20.93;;
13872;SDS011;7006;51.494;11.964;2022-12-18T14:09:01;25.17;;;18.23;;
13872;SDS011;7006;51.494;11.964;2022-12-18T14:11:28;29.80;;;20.90;;
13872;SDS011;7006;51.494;11.964;2022-12-18T14:13:55;28.80;;;19.50;;
13872;SDS011;7006;51.494;11.964;2022-12-18T14:16:22;30.40;;;19.57;;
13872;SDS011;7006;51.494;11.964;2022-12-18T14:18:52;30.53;;;20.43;;
13872;SDS011;7006;51.494;11.964;2022-12-18T14:21:20;31.00;;;21.63;;
13872;SDS011;7006;51.494;11.964;2022-12-18T14:23:47;32.57;;;20.83;;
13872;SDS011;7006;51.494;11.964;2022-12-18T14:26:19;31.87;;;20.87;;
13872;SDS011;7006;51.494;11.964;2022-12-18T14:28:46;34.83;;;21.30;;
13872;SDS011;7006;51.494;11.964;2022-12-18T14:31:16;31.87;;;20.03;;
13872;SDS011;7006;51.494;11.964;2022-12-18T14:33:43;33.33;;;21.00;;
13872;SDS011;7006;51.494;11.964;2022-12-18T14:36:14;31.97;;;21.00;;
13872;SDS011;7006;51.494;11.964;2022-12-18T14:38:42;35.23;;;22.83;;